sensor_id;sensor_type;location;lat;lon;timestamp;pressure;altitude;pressure_sealevel;temperature;humidity
40372;BME280;28564;53.346;-6.554;2023-02-16T00:02:09;100475.01;;;11.42;56.55
40372;BME280;28564;53.346;-6.554;2023-02-16T00:04:36;100479.19;;;11.20;56.63
40372;BME280;28564;53.346;-6.554;2023-02-16T00:07:03;100476.01;;;11.46;56.62
40372;BME280;28564;53.346;-6.554;2023-02-16T00:09:31;100472.09;;;11.49;56.72
40372;BME280;28564;53.346;-6.554;2023-02-16T00:11:58;100461.72;;;11.51;56.70
40372;BME280;28564;53.346;-6.554;2023-02-16T00:14:26;100456.14;;;11.30;56.82
40372;BME280;28564;53.346;-6.554;2023-02-16T00:16:54;100464.33;;;11.54;56.95
40372;BME280;28564;53.346;-6.554;2023-02-16T00:19:24;100458.69;;;11.57;56.95
40372;BME280;28564;53.346;-6.554;2023-02-16T00:21:53;100451.62;;;11.61;57.01
40372;BME280;28564;53.346;-6.554;2023-02-16T00:24:22;100454.01;;;11.14;57.04
40372;BME280;28564;53.346;-6.554;2023-02-16T00:26:49;100453.95;;;11.65;57.14
40372;BME280;28564;53.346;-6.554;2023-02-16T00:29:19;100453.52;;;11.19;57.20
40372;BME280;28564;53.346;-6.554;2023-02-16T00:31:48;100452.34;;;11.68;57.24
40372;BME280;28564;53.346;-6.554;2023-02-16T00:34:25;100459.71;;;11.71;57.30
40372;BME280;28564;53.346;-6.554;2023-02-16T00:36:54;100457.71;;;11.76;57.39
40372;BME280;28564;53.346;-6.554;2023-02-16T00:39:22;100454.32;;;11.80;57.36
40372;BME280;28564;53.346;-6.554;2023-02-16T00:41:50;100451.70;;;11.33;57.34
40372;BME280;28564;53.346;-6.554;2023-02-16T00:44:20;100455.15;;;11.84;57.48
40372;BME280;28564;53.346;-6.554;2023-02-16T00:46:49;100454.09;;;11.64;57.57
40372;BME280;28564;53.346;-6.554;2023-02-16T00:49:18;100453.88;;;11.91;57.62
40372;BME280;28564;53.346;-6.554;2023-02-16T00:51:46;100446.30;;;11.76;57.53
40372;BME280;28564;53.346;-6.554;2023-02-16T00:54:14;100447.91;;;11.52;57.59
40372;BME280;28564;53.346;-6.554;2023-02-16T00:56:41;100441.49;;;12.03;57.65
40372;BME280;28564;53.346;-6.554;2023-02-16T00:59:14;100440.56;;;12.05;57.58
40372;BME280;28564;53.346;-6.554;2023-02-16T01:01:43;100438.89;;;12.07;57.59
40372;BME280;28564;53.346;-6.554;2023-02-16T01:04:17;100434.43;;;11.62;57.56
40372;BME280;28564;53.346;-6.554;2023-02-16T01:06:44;100433.36;;;11.95;57.56
40372;BME280;28564;53.346;-6.554;2023-02-16T01:09:14;100431.78;;;12.21;57.53
40372;BME280;28564;53.346;-6.554;2023-02-16T01:11:42;100429.17;;;11.71;57.69
40372;BME280;28564;53.346;-6.554;2023-02-16T01:14:11;100425.89;;;11.72;57.69
40372;BME280;28564;53.346;-6.554;2023-02-16T01:16:41;100433.97;;;11.72;57.76
40372;BME280;28564;53.346;-6.554;2023-02-16T01:19:09;100438.26;;;11.74;57.87
40372;BME280;28564;53.346;-6.554;2023-02-16T01:21:37;100437.49;;;12.03;57.95
40372;BME280;28564;53.346;-6.554;2023-02-16T01:24:04;100433.75;;;11.79;58.08
40372;BME280;28564;53.346;-6.554;2023-02-16T01:26:37;100432.57;;;11.82;58.14
40372;BME280;28564;53.346;-6.554;2023-02-16T01:29:06;100427.32;;;11.89;58.10
40372;BME280;28564;53.346;-6.554;2023-02-16T01:31:33;100428.32;;;11.92;58.13
40372;BME280;28564;53.346;-6.554;2023-02-16T01:34:00;100431.52;;;11.99;58.25
40372;BME280;28564;53.346;-6.554;2023-02-16T01:36:30;100423.56;;;11.99;58.28
40372;BME280;28564;53.346;-6.554;2023-02-16T01:38:59;100420.80;;;12.00;58.33
40372;BME280;28564;53.346;-6.554;2023-02-16T01:41:41;100425.41;;;12.30;58.33
40372;BME280;28564;53.346;-6.554;2023-02-16T01:44:13;100422.70;;;12.11;58.23
40372;BME280;28564;53.346;-6.554;2023-02-16T01:46:47;100418.68;;;12.14;58.25
40372;BME280;28564;53.346;-6.554;2023-02-16T01:49:18;100418.74;;;12.20;58.26
40372;BME280;28564;53.346;-6.554;2023-02-16T01:51:52;100421.14;;;12.29;58.17
40372;BME280;28564;53.346;-6.554;2023-02-16T01:54:32;100425.22;;;12.32;58.25
40372;BME280;28564;53.346;-6.554;2023-02-16T01:57:05;100423.68;;;12.32;58.35
40372;BME280;28564;53.346;-6.554;2023-02-16T01:59:58;100425.90;;;12.37;58.30
40372;BME280;28564;53.346;-6.554;2023-02-16T02:02:31;100432.36;;;12.46;58.44
40372;BME280;28564;53.346;-6.554;2023-02-16T02:05:05;100432.18;;;12.43;58.57
40372;BME280;28564;53.346;-6.554;2023-02-16T02:07:42;100420.47;;;12.47;58.59
40372;BME280;28564;53.346;-6.554;2023-02-16T02:10:16;100419.69;;;12.48;58.68
40372;BME280;28564;53.346;-6.554;2023-02-16T02:12:50;100415.96;;;12.51;58.69
40372;BME280;28564;53.346;-6.554;2023-02-16T02:15:22;100408.14;;;12.53;58.60
40372;BME280;28564;53.346;-6.554;2023-02-16T02:17:50;100404.29;;;12.58;58.56
40372;BME280;28564;53.346;-6.554;2023-02-16T02:20:24;100401.87;;;12.58;58.61
40372;BME280;28564;53.346;-6.554;2023-02-16T02:23:13;100410.25;;;12.61;58.71
40372;BME280;28564;53.346;-6.554;2023-02-16T02:26:05;100407.54;;;12.63;58.78
40372;BME280;28564;53.346;-6.554;2023-02-16T02:28:47;100404.37;;;12.64;58.82
40372;BME280;28564;53.346;-6.554;2023-02-16T02:31:27;100410.29;;;12.66;58.90
40372;BME280;28564;53.346;-6.554;2023-02-16T02:34:09;100407.77;;;12.71;58.79
40372;BME280;28564;53.346;-6.554;2023-02-16T02:36:47;100397.84;;;12.67;58.82
40372;BME280;28564;53.346;-6.554;2023-02-16T02:39:25;100390.48;;;12.66;58.89
40372;BME280;28564;53.346;-6.554;2023-02-16T02:42:01;100388.71;;;12.70;58.86
40372;BME280;28564;53.346;-6.554;2023-02-16T02:44:32;100391.58;;;13.01;58.90
40372;BME280;28564;53.346;-6.554;2023-02-16T02:47:00;100397.43;;;12.80;58.92
40372;BME280;28564;53.346;-6.554;2023-02-16T02:49:28;100407.88;;;12.83;58.92
40372;BME280;28564;53.346;-6.554;2023-02-16T02:51:55;100406.12;;;12.60;58.97
40372;BME280;28564;53.346;-6.554;2023-02-16T02:54:25;100404.73;;;12.63;58.97
40372;BME280;28564;53.346;-6.554;2023-02-16T02:56:58;100399.85;;;12.82;59.15
40372;BME280;28564;53.346;-6.554;2023-02-16T02:59:27;100407.39;;;12.86;59.11
40372;BME280;28564;53.346;-6.554;2023-02-16T03:01:58;100413.75;;;12.90;59.06
40372;BME280;28564;53.346;-6.554;2023-02-16T03:04:28;100420.31;;;12.90;59.11
40372;BME280;28564;53.346;-6.554;2023-02-16T03:06:58;100435.21;;;12.94;59.10
40372;BME280;28564;53.346;-6.554;2023-02-16T03:09:28;100437.38;;;12.91;59.30
40372;BME280;28564;53.346;-6.554;2023-02-16T03:11:56;100437.40;;;12.92;59.34
40372;BME280;28564;53.346;-6.554;2023-02-16T03:14:27;100432.14;;;12.92;59.35
40372;BME280;28564;53.346;-6.554;2023-02-16T03:16:57;100432.07;;;12.77;59.29
40372;BME280;28564;53.346;-6.554;2023-02-16T03:19:25;100440.34;;;13.00;59.35
40372;BME280;28564;53.346;-6.554;2023-02-16T03:21:52;100441.95;;;12.82;59.33
40372;BME280;28564;53.346;-6.554;2023-02-16T03:24:25;100441.76;;;12.80;59.48
40372;BME280;28564;53.346;-6.554;2023-02-16T03:26:53;100448.83;;;12.84;59.43
40372;BME280;28564;53.346;-6.554;2023-02-16T03:29:22;100455.40;;;13.09;59.53
40372;BME280;28564;53.346;-6.554;2023-02-16T03:31:53;100456.34;;;13.11;59.62
40372;BME280;28564;53.346;-6.554;2023-02-16T03:34:21;100460.03;;;12.67;59.71
40372;BME280;28564;53.346;-6.554;2023-02-16T03:36:51;100457.44;;;12.65;59.79
40372;BME280;28564;53.346;-6.554;2023-02-16T03:39:20;100446.55;;;12.90;59.81
40372;BME280;28564;53.346;-6.554;2023-02-16T03:41:49;100440.44;;;12.90;59.84
40372;BME280;28564;53.346;-6.554;2023-02-16T03:44:17;100437.84;;;13.17;59.75
40372;BME280;28564;53.346;-6.554;2023-02-16T03:46:46;100435.18;;;12.96;59.71
40372;BME280;28564;53.346;-6.554;2023-02-16T03:49:13;100429.18;;;12.96;59.70
40372;BME280;28564;53.346;-6.554;2023-02-16T03:51:40;100426.37;;;12.96;59.79
40372;BME280;28564;53.346;-6.554;2023-02-16T03:54:08;100424.57;;;12.99;59.70
40372;BME280;28564;53.346;-6.554;2023-02-16T03:56:35;100421.96;;;13.21;59.74
40372;BME280;28564;53.346;-6.554;2023-02-16T03:59:02;100420.86;;;12.96;59.89
40372;BME280;28564;53.346;-6.554;2023-02-16T04:01:29;100424.82;;;12.93;60.04
40372;BME280;28564;53.346;-6.554;2023-02-16T04:03:56;100425.63;;;12.93;60.05
40372;BME280;28564;53.346;-6.554;2023-02-16T04:06:23;100430.29;;;13.03;59.88
40372;BME280;28564;53.346;-6.554;2023-02-16T04:08:51;100428.23;;;12.99;59.99
40372;BME280;28564;53.346;-6.554;2023-02-16T04:11:18;100430.60;;;13.02;60.04
40372;BME280;28564;53.346;-6.554;2023-02-16T04:13:45;100431.50;;;13.25;60.06
40372;BME280;28564;53.346;-6.554;2023-02-16T04:16:12;100433.26;;;13.32;59.94
40372;BME280;28564;53.346;-6.554;2023-02-16T04:18:39;100430.80;;;13.31;59.95
40372;BME280;28564;53.346;-6.554;2023-02-16T04:21:06;100429.04;;;13.10;59.95
40372;BME280;28564;53.346;-6.554;2023-02-16T04:23:34;100428.20;;;13.34;59.93
40372;BME280;28564;53.346;-6.554;2023-02-16T04:26:01;100432.53;;;12.90;60.03
40372;BME280;28564;53.346;-6.554;2023-02-16T04:28:28;100436.28;;;12.88;60.10
40372;BME280;28564;53.346;-6.554;2023-02-16T04:30:55;100444.75;;;13.14;59.97
40372;BME280;28564;53.346;-6.554;2023-02-16T04:33:22;100454.28;;;13.15;59.90
40372;BME280;28564;53.346;-6.554;2023-02-16T04:35:49;100446.29;;;13.14;59.92
40372;BME280;28564;53.346;-6.554;2023-02-16T04:38:17;100446.94;;;13.15;59.86
40372;BME280;28564;53.346;-6.554;2023-02-16T04:40:44;100449.81;;;13.12;59.87
40372;BME280;28564;53.346;-6.554;2023-02-16T04:43:11;100446.96;;;13.34;59.82
40372;BME280;28564;53.346;-6.554;2023-02-16T04:45:38;100451.17;;;13.09;59.89
40372;BME280;28564;53.346;-6.554;2023-02-16T04:48:05;100459.24;;;13.12;59.77
40372;BME280;28564;53.346;-6.554;2023-02-16T04:50:33;100456.98;;;13.32;59.80
40372;BME280;28564;53.346;-6.554;2023-02-16T04:53:00;100463.13;;;12.88;59.86
40372;BME280;28564;53.346;-6.554;2023-02-16T04:55:27;100469.71;;;13.10;59.76
40372;BME280;28564;53.346;-6.554;2023-02-16T04:57:54;100466.51;;;13.36;59.72
40372;BME280;28564;53.346;-6.554;2023-02-16T05:00:21;100470.11;;;13.13;59.64
40372;BME280;28564;53.346;-6.554;2023-02-16T05:02:48;100467.75;;;13.11;59.63
40372;BME280;28564;53.346;-6.554;2023-02-16T05:05:16;100462.95;;;13.13;59.62
40372;BME280;28564;53.346;-6.554;2023-02-16T05:07:43;100473.22;;;13.13;59.73
40372;BME280;28564;53.346;-6.554;2023-02-16T05:10:10;100485.48;;;13.36;59.80
40372;BME280;28564;53.346;-6.554;2023-02-16T05:12:37;100487.61;;;13.14;59.83
40372;BME280;28564;53.346;-6.554;2023-02-16T05:15:05;100484.79;;;13.13;59.93
40372;BME280;28564;53.346;-6.554;2023-02-16T05:17:33;100481.96;;;12.89;60.02
40372;BME280;28564;53.346;-6.554;2023-02-16T05:20:00;100476.56;;;13.33;60.14
40372;BME280;28564;53.346;-6.554;2023-02-16T05:22:28;100471.19;;;13.37;59.83
40372;BME280;28564;53.346;-6.554;2023-02-16T05:24:55;100470.76;;;12.93;59.85
40372;BME280;28564;53.346;-6.554;2023-02-16T05:27:24;100476.17;;;13.14;59.88
40372;BME280;28564;53.346;-6.554;2023-02-16T05:29:53;100486.80;;;13.37;59.86
40372;BME280;28564;53.346;-6.554;2023-02-16T05:32:21;100481.07;;;13.17;59.72
40372;BME280;28564;53.346;-6.554;2023-02-16T05:34:48;100486.24;;;13.14;59.91
40372;BME280;28564;53.346;-6.554;2023-02-16T05:37:16;100493.29;;;13.13;60.05
40372;BME280;28564;53.346;-6.554;2023-02-16T05:39:44;100489.52;;;13.13;60.10
40372;BME280;28564;53.346;-6.554;2023-02-16T05:42:11;100497.17;;;13.14;60.05
40372;BME280;28564;53.346;-6.554;2023-02-16T05:44:39;100510.05;;;13.15;60.02
40372;BME280;28564;53.346;-6.554;2023-02-16T05:47:06;100514.51;;;13.35;59.97
40372;BME280;28564;53.346;-6.554;2023-02-16T05:49:33;100527.16;;;13.38;59.74
40372;BME280;28564;53.346;-6.554;2023-02-16T05:52:00;100532.54;;;13.15;59.77
40372;BME280;28564;53.346;-6.554;2023-02-16T05:54:27;100545.70;;;13.15;59.87
40372;BME280;28564;53.346;-6.554;2023-02-16T05:56:55;100563.56;;;13.16;59.87
40372;BME280;28564;53.346;-6.554;2023-02-16T05:59:22;100570.34;;;13.16;59.71
40372;BME280;28564;53.346;-6.554;2023-02-16T06:01:49;100569.38;;;13.37;59.69
40372;BME280;28564;53.346;-6.554;2023-02-16T06:04:16;100569.46;;;13.37;59.60
40372;BME280;28564;53.346;-6.554;2023-02-16T06:06:44;100575.07;;;13.12;59.70
40372;BME280;28564;53.346;-6.554;2023-02-16T06:09:11;100568.87;;;13.14;59.62
40372;BME280;28564;53.346;-6.554;2023-02-16T06:11:39;100572.51;;;12.90;59.64
40372;BME280;28564;53.346;-6.554;2023-02-16T06:14:08;100568.74;;;13.09;59.74
40372;BME280;28564;53.346;-6.554;2023-02-16T06:16:37;100571.19;;;13.10;59.73
40372;BME280;28564;53.346;-6.554;2023-02-16T06:19:05;100573.17;;;13.11;59.62
40372;BME280;28564;53.346;-6.554;2023-02-16T06:21:33;100570.27;;;13.33;59.63
40372;BME280;28564;53.346;-6.554;2023-02-16T06:24:01;100569.00;;;13.11;59.51
40372;BME280;28564;53.346;-6.554;2023-02-16T06:26:28;100581.46;;;13.27;59.41
40372;BME280;28564;53.346;-6.554;2023-02-16T06:28:55;100574.91;;;13.22;59.40
40372;BME280;28564;53.346;-6.554;2023-02-16T06:31:22;100577.88;;;13.16;59.50
40372;BME280;28564;53.346;-6.554;2023-02-16T06:33:50;100577.66;;;12.94;59.52
40372;BME280;28564;53.346;-6.554;2023-02-16T06:36:18;100583.37;;;12.93;59.53
40372;BME280;28564;53.346;-6.554;2023-02-16T06:38:45;100586.30;;;13.14;59.54
40372;BME280;28564;53.346;-6.554;2023-02-16T06:41:14;100590.31;;;13.14;59.50
40372;BME280;28564;53.346;-6.554;2023-02-16T06:43:41;100585.07;;;13.15;59.32
40372;BME280;28564;53.346;-6.554;2023-02-16T06:46:08;100583.20;;;13.15;59.23
40372;BME280;28564;53.346;-6.554;2023-02-16T06:48:36;100589.60;;;12.97;59.01
40372;BME280;28564;53.346;-6.554;2023-02-16T06:51:03;100591.04;;;12.96;58.96
40372;BME280;28564;53.346;-6.554;2023-02-16T06:53:31;100592.45;;;13.16;59.08
40372;BME280;28564;53.346;-6.554;2023-02-16T06:55:58;100598.65;;;12.92;59.21
40372;BME280;28564;53.346;-6.554;2023-02-16T06:58:25;100593.14;;;13.15;59.32
40372;BME280;28564;53.346;-6.554;2023-02-16T07:00:54;100590.15;;;13.13;59.56
40372;BME280;28564;53.346;-6.554;2023-02-16T07:03:20;100597.27;;;12.72;59.42
40372;BME280;28564;53.346;-6.554;2023-02-16T07:05:48;100603.62;;;12.93;59.48
40372;BME280;28564;53.346;-6.554;2023-02-16T07:08:16;100603.15;;;13.12;59.70
40372;BME280;28564;53.346;-6.554;2023-02-16T07:10:44;100614.94;;;13.11;59.69
40372;BME280;28564;53.346;-6.554;2023-02-16T07:13:12;100613.22;;;12.87;59.87
40372;BME280;28564;53.346;-6.554;2023-02-16T07:15:39;100616.43;;;12.88;59.82
40372;BME280;28564;53.346;-6.554;2023-02-16T07:18:06;100612.28;;;13.05;59.98
40372;BME280;28564;53.346;-6.554;2023-02-16T07:20:33;100615.78;;;13.04;60.08
40372;BME280;28564;53.346;-6.554;2023-02-16T07:23:00;100617.76;;;13.03;60.20
40372;BME280;28564;53.346;-6.554;2023-02-16T07:25:27;100616.60;;;13.09;60.02
40372;BME280;28564;53.346;-6.554;2023-02-16T07:27:55;100622.00;;;13.06;60.08
40372;BME280;28564;53.346;-6.554;2023-02-16T07:30:22;100623.75;;;12.84;60.03
40372;BME280;28564;53.346;-6.554;2023-02-16T07:32:49;100623.22;;;13.09;59.71
40372;BME280;28564;53.346;-6.554;2023-02-16T07:35:16;100612.80;;;12.82;59.70
40372;BME280;28564;53.346;-6.554;2023-02-16T07:37:43;100608.93;;;13.01;59.61
40372;BME280;28564;53.346;-6.554;2023-02-16T07:40:12;100614.90;;;13.00;59.48
40372;BME280;28564;53.346;-6.554;2023-02-16T07:42:39;100622.14;;;12.97;59.40
40372;BME280;28564;53.346;-6.554;2023-02-16T07:45:07;100627.01;;;12.71;59.21
40372;BME280;28564;53.346;-6.554;2023-02-16T07:47:34;100626.46;;;12.91;59.05
40372;BME280;28564;53.346;-6.554;2023-02-16T07:50:01;100630.17;;;12.87;58.81
40372;BME280;28564;53.346;-6.554;2023-02-16T07:52:28;100648.49;;;12.83;58.72
40372;BME280;28564;53.346;-6.554;2023-02-16T07:54:56;100657.11;;;12.79;58.62
40372;BME280;28564;53.346;-6.554;2023-02-16T07:57:23;100664.47;;;12.78;58.42
40372;BME280;28564;53.346;-6.554;2023-02-16T07:59:50;100678.03;;;12.76;58.28
40372;BME280;28564;53.346;-6.554;2023-02-16T08:02:18;100678.22;;;12.72;58.47
40372;BME280;28564;53.346;-6.554;2023-02-16T08:04:46;100672.51;;;12.47;58.42
40372;BME280;28564;53.346;-6.554;2023-02-16T08:07:14;100679.96;;;12.71;58.26
40372;BME280;28564;53.346;-6.554;2023-02-16T08:09:41;100693.98;;;12.71;58.17
40372;BME280;28564;53.346;-6.554;2023-02-16T08:12:09;100702.75;;;12.72;58.03
40372;BME280;28564;53.346;-6.554;2023-02-16T08:14:37;100704.68;;;12.73;57.93
40372;BME280;28564;53.346;-6.554;2023-02-16T08:17:06;100719.88;;;12.73;57.65
40372;BME280;28564;53.346;-6.554;2023-02-16T08:19:34;100729.57;;;12.71;57.78
40372;BME280;28564;53.346;-6.554;2023-02-16T08:22:02;100731.81;;;12.47;57.92
40372;BME280;28564;53.346;-6.554;2023-02-16T08:24:29;100742.10;;;12.70;57.50
40372;BME280;28564;53.346;-6.554;2023-02-16T08:26:57;100745.85;;;12.68;57.06
40372;BME280;28564;53.346;-6.554;2023-02-16T08:29:24;100754.93;;;12.63;56.68
40372;BME280;28564;53.346;-6.554;2023-02-16T08:31:52;100757.68;;;12.58;56.51
40372;BME280;28564;53.346;-6.554;2023-02-16T08:34:19;100750.89;;;12.54;56.46
40372;BME280;28564;53.346;-6.554;2023-02-16T08:36:51;100757.91;;;12.50;56.62
40372;BME280;28564;53.346;-6.554;2023-02-16T08:39:20;100758.31;;;12.75;56.91
40372;BME280;28564;53.346;-6.554;2023-02-16T08:41:49;100754.65;;;12.51;56.72
40372;BME280;28564;53.346;-6.554;2023-02-16T08:44:18;100759.54;;;12.54;56.60
40372;BME280;28564;53.346;-6.554;2023-02-16T08:46:47;100763.76;;;12.54;56.56
40372;BME280;28564;53.346;-6.554;2023-02-16T08:49:21;100777.27;;;12.54;56.31
40372;BME280;28564;53.346;-6.554;2023-02-16T08:51:50;100784.29;;;12.52;56.16
40372;BME280;28564;53.346;-6.554;2023-02-16T08:54:21;100772.86;;;12.49;55.90
40372;BME280;28564;53.346;-6.554;2023-02-16T08:56:48;100771.09;;;12.45;55.93
40372;BME280;28564;53.346;-6.554;2023-02-16T08:59:17;100775.34;;;12.42;56.04
40372;BME280;28564;53.346;-6.554;2023-02-16T09:01:45;100774.16;;;12.39;56.19
40372;BME280;28564;53.346;-6.554;2023-02-16T09:04:13;100774.67;;;12.42;56.04
40372;BME280;28564;53.346;-6.554;2023-02-16T09:06:43;100782.23;;;12.42;56.01
40372;BME280;28564;53.346;-6.554;2023-02-16T09:09:11;100790.71;;;12.68;55.88
40372;BME280;28564;53.346;-6.554;2023-02-16T09:11:38;100792.01;;;12.42;55.81
40372;BME280;28564;53.346;-6.554;2023-02-16T09:14:06;100799.26;;;12.37;56.15
40372;BME280;28564;53.346;-6.554;2023-02-16T09:16:36;100793.14;;;12.40;55.95
40372;BME280;28564;53.346;-6.554;2023-02-16T09:19:03;100793.84;;;12.39;55.96
40372;BME280;28564;53.346;-6.554;2023-02-16T09:21:31;100798.65;;;12.36;55.94
40372;BME280;28564;53.346;-6.554;2023-02-16T09:24:00;100804.13;;;12.32;56.15
40372;BME280;28564;53.346;-6.554;2023-02-16T09:26:30;100810.34;;;12.29;56.24
40372;BME280;28564;53.346;-6.554;2023-02-16T09:28:58;100817.37;;;12.21;56.32
40372;BME280;28564;53.346;-6.554;2023-02-16T09:31:27;100811.96;;;12.16;56.54
40372;BME280;28564;53.346;-6.554;2023-02-16T09:33:56;100809.31;;;12.42;56.82
40372;BME280;28564;53.346;-6.554;2023-02-16T09:36:24;100809.10;;;12.17;56.89
40372;BME280;28564;53.346;-6.554;2023-02-16T09:38:51;100805.98;;;12.24;56.45
40372;BME280;28564;53.346;-6.554;2023-02-16T09:41:26;100807.81;;;12.29;56.01
40372;BME280;28564;53.346;-6.554;2023-02-16T09:43:58;100822.65;;;12.39;55.45
40372;BME280;28564;53.346;-6.554;2023-02-16T09:46:29;100828.84;;;12.43;55.36
40372;BME280;28564;53.346;-6.554;2023-02-16T09:48:57;100835.42;;;12.26;55.27
40372;BME280;28564;53.346;-6.554;2023-02-16T09:51:32;100845.23;;;12.55;55.22
40372;BME280;28564;53.346;-6.554;2023-02-16T09:54:11;100853.25;;;12.65;54.94
40372;BME280;28564;53.346;-6.554;2023-02-16T09:56:48;100858.63;;;12.75;54.84
40372;BME280;28564;53.346;-6.554;2023-02-16T09:59:30;100858.60;;;12.82;54.32
40372;BME280;28564;53.346;-6.554;2023-02-16T10:02:06;100867.99;;;12.87;53.90
40372;BME280;28564;53.346;-6.554;2023-02-16T10:04:44;100870.24;;;12.72;53.84
40372;BME280;28564;53.346;-6.554;2023-02-16T10:07:22;100877.08;;;12.94;53.87
40372;BME280;28564;53.346;-6.554;2023-02-16T10:09:56;100889.28;;;12.65;54.05
40372;BME280;28564;53.346;-6.554;2023-02-16T10:12:30;100891.51;;;12.63;54.27
40372;BME280;28564;53.346;-6.554;2023-02-16T10:15:02;100896.45;;;12.60;54.14
40372;BME280;28564;53.346;-6.554;2023-02-16T10:17:38;100900.61;;;12.74;54.35
40372;BME280;28564;53.346;-6.554;2023-02-16T10:20:12;100904.94;;;12.60;54.84
40372;BME280;28564;53.346;-6.554;2023-02-16T10:22:46;100902.92;;;12.50;55.07
40372;BME280;28564;53.346;-6.554;2023-02-16T10:25:17;100902.61;;;12.41;55.42
40372;BME280;28564;53.346;-6.554;2023-02-16T10:27:51;100913.01;;;12.38;55.71
40372;BME280;28564;53.346;-6.554;2023-02-16T10:30:24;100922.20;;;12.08;55.37
40372;BME280;28564;53.346;-6.554;2023-02-16T10:32:56;100922.51;;;12.25;55.30
40372;BME280;28564;53.346;-6.554;2023-02-16T10:35:32;100935.35;;;12.21;55.26
40372;BME280;28564;53.346;-6.554;2023-02-16T10:38:09;100929.33;;;12.18;55.56
40372;BME280;28564;53.346;-6.554;2023-02-16T10:40:48;100926.53;;;12.20;55.59
40372;BME280;28564;53.346;-6.554;2023-02-16T10:43:22;100916.43;;;12.19;55.66
40372;BME280;28564;53.346;-6.554;2023-02-16T10:45:53;100917.71;;;12.20;55.53
40372;BME280;28564;53.346;-6.554;2023-02-16T10:48:22;100914.62;;;12.22;55.11
40372;BME280;28564;53.346;-6.554;2023-02-16T10:50:55;100909.21;;;12.02;55.51
40372;BME280;28564;53.346;-6.554;2023-02-16T10:53:35;100918.77;;;12.30;55.34
40372;BME280;28564;53.346;-6.554;2023-02-16T10:56:45;100909.92;;;12.36;55.00
40372;BME280;28564;53.346;-6.554;2023-02-16T10:59:18;100897.62;;;12.40;55.33
40372;BME280;28564;53.346;-6.554;2023-02-16T11:01:53;100898.28;;;12.52;54.49
40372;BME280;28564;53.346;-6.554;2023-02-16T11:04:32;100907.50;;;12.57;54.52
40372;BME280;28564;53.346;-6.554;2023-02-16T11:07:02;100909.86;;;12.44;54.32
40372;BME280;28564;53.346;-6.554;2023-02-16T11:09:31;100913.16;;;12.81;54.11
40372;BME280;28564;53.346;-6.554;2023-02-16T11:11:58;100920.82;;;12.87;54.02
40372;BME280;28564;53.346;-6.554;2023-02-16T11:14:28;100911.12;;;12.93;53.66
40372;BME280;28564;53.346;-6.554;2023-02-16T11:17:12;100911.48;;;12.92;53.67
40372;BME280;28564;53.346;-6.554;2023-02-16T11:19:49;100922.30;;;12.73;53.32
40372;BME280;28564;53.346;-6.554;2023-02-16T11:22:29;100925.99;;;13.10;53.63
40372;BME280;28564;53.346;-6.554;2023-02-16T11:25:22;100914.42;;;12.91;53.55
40372;BME280;28564;53.346;-6.554;2023-02-16T11:27:53;100920.86;;;13.18;52.43
40372;BME280;28564;53.346;-6.554;2023-02-16T11:30:28;100921.84;;;13.05;51.94
40372;BME280;28564;53.346;-6.554;2023-02-16T11:32:58;100919.74;;;13.38;51.12
40372;BME280;28564;53.346;-6.554;2023-02-16T11:35:26;100915.56;;;13.31;50.53
40372;BME280;28564;53.346;-6.554;2023-02-16T11:37:54;100920.99;;;13.39;50.80
40372;BME280;28564;53.346;-6.554;2023-02-16T11:40:23;100932.40;;;13.08;50.57
40372;BME280;28564;53.346;-6.554;2023-02-16T11:42:53;100945.35;;;13.04;50.65
40372;BME280;28564;53.346;-6.554;2023-02-16T11:45:25;100932.38;;;13.52;50.82
40372;BME280;28564;53.346;-6.554;2023-02-16T11:47:56;100931.86;;;13.56;50.96
40372;BME280;28564;53.346;-6.554;2023-02-16T11:50:26;100928.88;;;13.15;50.72
40372;BME280;28564;53.346;-6.554;2023-02-16T11:52:56;100926.64;;;13.19;50.97
40372;BME280;28564;53.346;-6.554;2023-02-16T11:55:28;100901.84;;;13.22;50.56
40372;BME280;28564;53.346;-6.554;2023-02-16T11:58:12;100897.17;;;13.19;50.87
40372;BME280;28564;53.346;-6.554;2023-02-16T12:00:43;100889.40;;;13.01;50.67
40372;BME280;28564;53.346;-6.554;2023-02-16T12:03:18;100894.44;;;13.25;50.97
40372;BME280;28564;53.346;-6.554;2023-02-16T12:05:57;100884.28;;;13.46;50.92
40372;BME280;28564;53.346;-6.554;2023-02-16T12:08:42;100887.12;;;13.67;51.04
40372;BME280;28564;53.346;-6.554;2023-02-16T12:11:20;100883.42;;;13.78;50.96
40372;BME280;28564;53.346;-6.554;2023-02-16T12:14:01;100882.22;;;13.47;50.48
40372;BME280;28564;53.346;-6.554;2023-02-16T12:16:35;100883.48;;;13.42;50.57
40372;BME280;28564;53.346;-6.554;2023-02-16T12:19:18;100880.93;;;13.66;50.80
40372;BME280;28564;53.346;-6.554;2023-02-16T12:21:51;100883.56;;;13.79;51.15
40372;BME280;28564;53.346;-6.554;2023-02-16T12:24:28;100879.31;;;13.88;50.82
40372;BME280;28564;53.346;-6.554;2023-02-16T12:27:03;100879.93;;;14.02;49.53
40372;BME280;28564;53.346;-6.554;2023-02-16T12:29:40;100874.62;;;14.02;49.02
40372;BME280;28564;53.346;-6.554;2023-02-16T12:32:22;100881.24;;;13.98;48.70
40372;BME280;28564;53.346;-6.554;2023-02-16T12:35:05;100875.48;;;14.49;48.35
40372;BME280;28564;53.346;-6.554;2023-02-16T12:37:42;100870.52;;;14.13;48.86
40372;BME280;28564;53.346;-6.554;2023-02-16T12:40:17;100873.28;;;14.75;48.50
40372;BME280;28564;53.346;-6.554;2023-02-16T12:43:00;100871.52;;;14.46;48.87
40372;BME280;28564;53.346;-6.554;2023-02-16T12:45:31;100866.50;;;14.84;48.50
40372;BME280;28564;53.346;-6.554;2023-02-16T12:48:04;100866.74;;;15.07;48.32
40372;BME280;28564;53.346;-6.554;2023-02-16T12:50:40;100863.41;;;15.14;46.64
40372;BME280;28564;53.346;-6.554;2023-02-16T12:53:18;100865.67;;;15.80;46.12
40372;BME280;28564;53.346;-6.554;2023-02-16T12:55:51;100867.20;;;16.03;45.48
40372;BME280;28564;53.346;-6.554;2023-02-16T12:58:23;100863.70;;;16.09;44.68